createdAt,value
2018-03-27T00:00:38.935Z,74.70
2018-03-27T00:03:05.350Z,74.70
2018-03-27T00:05:31.642Z,75.20
2018-03-27T00:07:57.945Z,75.60
2018-03-27T00:10:24.222Z,76.00
2018-03-27T00:12:50.525Z,74.80
2018-03-27T00:15:17.495Z,73.70
2018-03-27T00:17:43.815Z,73.60
2018-03-27T00:20:10.854Z,73.90
2018-03-27T00:22:38.114Z,74.00
2018-03-27T00:25:04.453Z,74.40
2018-03-27T00:27:43.828Z,73.20
2018-03-27T00:30:23.252Z,73.50
2018-03-27T00:33:01.946Z,73.50
2018-03-27T00:35:40.397Z,73.30
2018-03-27T00:38:19.181Z,72.70
2018-03-27T00:40:45.952Z,73.10
2018-03-27T00:43:13.224Z,73.10
2018-03-27T00:45:39.485Z,73.40
2018-03-27T00:48:05.977Z,72.60
2018-03-27T00:50:32.216Z,72.80
2018-03-27T00:52:58.524Z,73.20
2018-03-27T00:55:24.823Z,73.60
2018-03-27T00:57:51.387Z,73.80
2018-03-27T01:00:17.779Z,74.20
2018-03-27T01:02:44.065Z,74.40
2018-03-27T01:05:10.369Z,74.70
2018-03-27T01:07:36.614Z,74.80
2018-03-27T01:10:02.866Z,75.50
2018-03-27T01:12:29.130Z,75.00
2018-03-27T01:14:56.210Z,74.70
2018-03-27T01:17:22.456Z,74.70
2018-03-27T01:19:48.826Z,74.70
2018-03-27T01:22:15.051Z,75.70
2018-03-27T01:24:41.340Z,77.50
2018-03-27T01:27:08.346Z,72.70
2018-03-27T01:29:34.578Z,72.60
2018-03-27T01:32:00.810Z,71.80
2018-03-27T01:34:27.113Z,72.20
2018-03-27T01:36:53.383Z,72.50
2018-03-27T01:39:20.402Z,73.50
2018-03-27T01:41:46.692Z,73.50
2018-03-27T01:44:13.921Z,74.30
2018-03-27T01:46:40.178Z,74.30
2018-03-27T01:49:07.156Z,74.40
2018-03-27T01:51:33.426Z,74.40
2018-03-27T01:53:59.656Z,74.60
2018-03-27T01:56:26.001Z,75.30
2018-03-27T01:58:52.329Z,75.70
2018-03-27T02:01:18.627Z,75.80
2018-03-27T02:03:44.902Z,76.50
2018-03-27T02:06:11.894Z,76.50
2018-03-27T02:08:38.146Z,76.50
2018-03-27T02:11:10.438Z,76.60
2018-03-27T02:13:42.780Z,75.40
2018-03-27T02:16:15.094Z,75.20
2018-03-27T02:18:47.471Z,74.90
2018-03-27T02:21:19.811Z,74.80
2018-03-27T02:23:46.874Z,75.30
2018-03-27T02:26:13.878Z,75.50
2018-03-27T02:28:40.173Z,75.30
2018-03-27T02:31:06.384Z,75.00
2018-03-27T02:33:32.735Z,75.20
2018-03-27T02:35:59.033Z,74.50
2018-03-27T02:38:25.370Z,74.50
2018-03-27T02:40:51.697Z,73.60
2018-03-27T02:43:18.685Z,74.20
2018-03-27T02:45:44.972Z,74.20
2018-03-27T02:48:11.201Z,74.10
2018-03-27T02:50:37.451Z,74.50
2018-03-27T02:53:03.675Z,74.20
2018-03-27T02:55:29.913Z,73.80
2018-03-27T02:57:56.226Z,73.70
2018-03-27T03:00:22.460Z,74.00
2018-03-27T03:02:48.712Z,74.40
2018-03-27T03:05:14.950Z,73.80
2018-03-27T03:07:41.205Z,72.50
2018-03-27T03:10:07.474Z,75.80
2018-03-27T03:12:33.775Z,71.80
2018-03-27T03:15:00.161Z,70.70
2018-03-27T03:17:26.448Z,70.80
2018-03-27T03:19:53.442Z,71.30
2018-03-27T03:22:19.758Z,71.20
2018-03-27T03:24:46.017Z,72.00
2018-03-27T03:27:12.276Z,72.60
2018-03-27T03:29:38.573Z,73.50
2018-03-27T03:32:04.820Z,72.60
2018-03-27T03:34:31.808Z,73.30
2018-03-27T03:36:58.034Z,73.30
2018-03-27T03:39:24.297Z,72.90
2018-03-27T03:41:50.564Z,74.00
2018-03-27T03:44:16.920Z,73.10
2018-03-27T03:46:43.208Z,72.10
2018-03-27T03:49:09.590Z,71.60
2018-03-27T03:51:35.912Z,72.10
2018-03-27T03:54:02.201Z,71.90
2018-03-27T03:56:29.177Z,72.60
2018-03-27T03:58:55.449Z,72.60
2018-03-27T04:01:21.761Z,74.90
2018-03-27T04:03:48.224Z,73.50
2018-03-27T04:06:14.547Z,71.30
2018-03-27T04:08:40.818Z,71.40
2018-03-27T04:11:07.089Z,71.60
2018-03-27T04:13:33.366Z,72.50
2018-03-27T04:16:00.398Z,72.00
2018-03-27T04:18:26.718Z,72.00
2018-03-27T04:20:52.990Z,72.10
2018-03-27T04:23:19.269Z,72.40
2018-03-27T04:25:45.547Z,72.10
2018-03-27T04:28:11.838Z,72.80
2018-03-27T04:30:38.813Z,71.50
2018-03-27T04:33:05.121Z,71.40
2018-03-27T04:35:31.356Z,71.20
2018-03-27T04:37:57.743Z,71.80
2018-03-27T04:40:24.059Z,72.40
2018-03-27T04:42:51.062Z,70.00
2018-03-27T04:45:17.332Z,70.00
2018-03-27T04:47:43.523Z,69.40
2018-03-27T04:50:09.793Z,69.60
2018-03-27T04:52:36.120Z,69.60
2018-03-27T04:55:02.491Z,69.90
2018-03-27T04:57:28.826Z,69.90
2018-03-27T04:59:55.085Z,70.00
2018-03-27T05:02:21.440Z,70.40
2018-03-27T05:04:48.467Z,70.60
2018-03-27T05:07:14.762Z,70.60
2018-03-27T05:09:41.085Z,70.20
2018-03-27T05:12:07.393Z,71.20
2018-03-27T05:14:33.718Z,71.30
2018-03-27T05:17:00.023Z,71.60
2018-03-27T05:19:27.067Z,72.10
2018-03-27T05:21:53.489Z,72.10
2018-03-27T05:24:19.843Z,72.10
2018-03-27T05:26:46.141Z,71.90
2018-03-27T05:29:16.026Z,72.10
2018-03-27T05:31:42.413Z,72.10
2018-03-27T05:34:08.655Z,72.40
2018-03-27T05:36:34.960Z,72.60
2018-03-27T05:39:01.263Z,72.80
2018-03-27T05:41:27.552Z,71.50
2018-03-27T05:43:53.890Z,71.10
2018-03-27T05:46:21.042Z,71.30
2018-03-27T05:48:47.375Z,71.30
2018-03-27T05:51:13.749Z,71.50
2018-03-27T05:53:40.023Z,70.50
2018-03-27T05:56:06.321Z,72.00
2018-03-27T05:58:32.580Z,71.10
2018-03-27T06:00:58.931Z,69.80
2018-03-27T06:03:25.984Z,68.20
2018-03-27T06:05:52.434Z,68.20
2018-03-27T06:08:18.856Z,68.20
2018-03-27T06:10:45.126Z,68.20
2018-03-27T06:13:11.428Z,68.10
2018-03-27T06:15:37.662Z,69.30
2018-03-27T06:18:03.953Z,68.90
2018-03-27T06:20:30.254Z,69.20
2018-03-27T06:22:56.563Z,67.70
2018-03-27T06:25:22.914Z,69.10
2018-03-27T06:27:49.461Z,69.20
2018-03-27T06:30:16.887Z,70.20
2018-03-27T06:32:43.214Z,70.20
2018-03-27T06:35:09.540Z,70.30
2018-03-27T06:37:35.855Z,70.90
2018-03-27T06:40:02.286Z,71.20
2018-03-27T06:42:29.430Z,71.20
2018-03-27T06:44:56.422Z,71.60
2018-03-27T06:47:23.661Z,70.20
2018-03-27T06:49:50.517Z,70.20
2018-03-27T06:52:18.101Z,69.90
2018-03-27T06:54:44.385Z,70.30
2018-03-27T06:57:10.716Z,70.50
2018-03-27T06:59:37.032Z,70.90
2018-03-27T07:02:04.014Z,70.60
2018-03-27T07:04:30.326Z,70.50
2018-03-27T07:06:56.572Z,70.30
2018-03-27T07:09:23.724Z,70.00
2018-03-27T07:11:50.642Z,69.70
2018-03-27T07:14:16.964Z,69.60
2018-03-27T07:16:43.240Z,69.50
2018-03-27T07:19:09.500Z,69.20
2018-03-27T07:21:35.820Z,67.90
2018-03-27T07:24:02.114Z,67.30
2018-03-27T07:26:29.150Z,66.00
2018-03-27T07:28:56.157Z,66.90
2018-03-27T07:31:22.419Z,66.80
2018-03-27T07:33:48.819Z,66.00
2018-03-27T07:36:15.119Z,65.40
2018-03-27T07:38:42.142Z,66.00
2018-03-27T07:41:11.581Z,66.00
2018-03-27T07:43:37.855Z,65.20
2018-03-27T07:46:04.115Z,65.90
2018-03-27T07:48:31.149Z,66.70
2018-03-27T07:50:57.447Z,66.60
2018-03-27T07:53:23.714Z,65.20
2018-03-27T07:55:50.760Z,66.00
2018-03-27T07:58:17.028Z,66.70
2018-03-27T08:00:43.329Z,64.50
2018-03-27T08:03:09.599Z,64.60
2018-03-27T08:05:35.890Z,65.70
2018-03-27T08:08:02.158Z,65.60
2018-03-27T08:10:28.442Z,65.80
2018-03-27T08:12:54.713Z,65.50
2018-03-27T08:15:20.989Z,63.80
2018-03-27T08:17:47.274Z,63.80
2018-03-27T08:20:13.556Z,64.20
2018-03-27T08:22:40.604Z,64.60
2018-03-27T08:25:07.596Z,63.80
2018-03-27T08:27:34.059Z,63.80
2018-03-27T08:30:00.350Z,63.90
2018-03-27T08:32:27.340Z,59.70
2018-03-27T08:34:53.608Z,59.70
2018-03-27T08:37:19.916Z,59.70
2018-03-27T08:39:46.177Z,60.50
2018-03-27T08:42:12.510Z,60.60
2018-03-27T08:44:38.919Z,59.60
2018-03-27T08:47:06.027Z,59.90
2018-03-27T08:49:32.304Z,59.30
2018-03-27T08:51:58.564Z,59.30
2018-03-27T08:54:25.585Z,58.30
2018-03-27T08:56:51.837Z,58.30
2018-03-27T08:59:18.108Z,56.90
2018-03-27T09:01:45.144Z,54.60
2018-03-27T09:04:11.394Z,54.50
2018-03-27T09:06:37.675Z,55.70
2018-03-27T09:09:03.995Z,56.50
2018-03-27T09:11:30.235Z,55.10
2018-03-27T09:13:57.241Z,57.00
2018-03-27T09:16:23.578Z,57.00
2018-03-27T09:18:49.887Z,55.10
2018-03-27T09:21:16.886Z,51.30
2018-03-27T09:23:43.154Z,51.30
2018-03-27T09:26:09.441Z,53.50
2018-03-27T09:28:36.479Z,52.60
2018-03-27T09:31:02.705Z,52.60
2018-03-27T09:33:28.950Z,51.10
2018-03-27T09:35:55.234Z,51.10
2018-03-27T09:38:21.578Z,53.00
2018-03-27T09:40:47.814Z,49.30
2018-03-27T09:43:14.053Z,50.90
2018-03-27T09:45:40.288Z,49.50
2018-03-27T09:48:07.285Z,46.60
2018-03-27T09:50:33.556Z,46.60
2018-03-27T09:52:59.819Z,48.00
2018-03-27T09:55:26.865Z,49.40
2018-03-27T09:57:53.155Z,49.40
2018-03-27T10:00:25.812Z,48.80
2018-03-27T10:02:52.846Z,51.00
2018-03-27T10:05:19.552Z,51.00
2018-03-27T10:07:45.920Z,49.70
2018-03-27T10:10:12.166Z,47.00
2018-03-27T10:12:38.410Z,42.20
2018-03-27T10:15:04.738Z,43.10
2018-03-27T10:17:31.127Z,43.70
2018-03-27T10:19:57.444Z,41.60
2018-03-27T10:22:23.782Z,41.90
2018-03-27T10:24:50.260Z,44.30
2018-03-27T10:27:17.517Z,39.30
2018-03-27T10:29:43.778Z,39.30
2018-03-27T10:32:10.855Z,41.00
2018-03-27T10:34:37.250Z,40.90
2018-03-27T10:37:03.672Z,41.90
2018-03-27T10:39:30.029Z,42.80
2018-03-27T10:41:56.303Z,46.00
2018-03-27T10:44:23.650Z,40.50
2018-03-27T10:46:50.277Z,41.10
2018-03-27T10:49:16.604Z,41.40
2018-03-27T10:51:42.952Z,43.30
2018-03-27T10:54:09.255Z,45.90
2018-03-27T10:56:36.267Z,38.50
2018-03-27T10:59:02.678Z,38.50
2018-03-27T11:01:29.722Z,42.10
2018-03-27T11:03:56.903Z,37.30
2018-03-27T11:06:23.886Z,39.30
2018-03-27T11:08:50.397Z,39.30
2018-03-27T11:11:17.660Z,38.60
2018-03-27T11:13:43.964Z,38.50
2018-03-27T11:16:10.332Z,39.70
2018-03-27T11:18:36.622Z,40.40
2018-03-27T11:21:02.878Z,41.10
2018-03-27T11:23:36.354Z,42.90
2018-03-27T11:26:03.049Z,44.40
2018-03-27T11:28:29.382Z,46.90
2018-03-27T11:30:55.716Z,42.10
2018-03-27T11:33:22.152Z,40.80
2018-03-27T11:35:48.920Z,43.00
2018-03-27T11:38:16.033Z,38.80
2018-03-27T11:40:43.053Z,41.70
2018-03-27T11:43:09.382Z,41.80
2018-03-27T11:45:35.760Z,44.30
2018-03-27T11:48:02.054Z,46.70
2018-03-27T11:50:28.368Z,48.20
2018-03-27T11:52:54.638Z,49.20
2018-03-27T11:55:21.186Z,55.80
2018-03-27T11:57:48.948Z,52.00
2018-03-27T12:00:15.430Z,52.90
2018-03-27T12:02:41.783Z,52.30
2018-03-27T12:05:08.254Z,52.90
2018-03-27T12:07:34.551Z,55.90
2018-03-27T12:10:04.522Z,55.50
2018-03-27T12:12:30.818Z,54.30
2018-03-27T12:14:57.174Z,55.10
2018-03-27T12:17:23.650Z,50.20
2018-03-27T12:19:50.002Z,50.20
2018-03-27T12:22:16.294Z,50.50
2018-03-27T12:24:43.339Z,49.00
2018-03-27T12:27:10.377Z,49.30
2018-03-27T12:29:36.762Z,49.30
2018-03-27T12:32:03.366Z,48.10
2018-03-27T12:34:29.707Z,49.30
2018-03-27T12:36:56.113Z,50.90
2018-03-27T12:39:22.624Z,50.80
2018-03-27T12:41:49.236Z,51.00
2018-03-27T12:44:15.694Z,50.40
2018-03-27T12:46:42.065Z,50.30
2018-03-27T12:49:08.383Z,51.40
2018-03-27T12:51:34.737Z,50.70
2018-03-27T12:54:01.112Z,51.00
2018-03-27T12:56:28.212Z,51.70
2018-03-27T12:58:54.546Z,51.60
2018-03-27T13:01:21.264Z,52.30
2018-03-27T13:03:48.728Z,52.50
2018-03-27T13:06:15.189Z,52.00
2018-03-27T13:08:42.310Z,49.80
2018-03-27T13:11:08.636Z,49.70
2018-03-27T13:13:35.021Z,49.10
2018-03-27T13:16:01.524Z,49.10
2018-03-27T13:18:27.843Z,46.40
2018-03-27T13:20:54.216Z,45.60
2018-03-27T13:23:20.915Z,46.50
2018-03-27T13:25:47.707Z,47.50
2018-03-27T13:28:14.098Z,45.80
2018-03-27T13:30:40.390Z,44.80
2018-03-27T13:33:06.706Z,43.60
2018-03-27T13:35:33.707Z,42.70
2018-03-27T13:37:59.938Z,42.60
2018-03-27T13:40:26.202Z,44.40
2018-03-27T13:42:52.586Z,41.10
2018-03-27T13:45:19.659Z,38.90
2018-03-27T13:47:46.004Z,38.90
2018-03-27T13:50:12.243Z,39.60
2018-03-27T13:52:39.253Z,41.50
2018-03-27T13:55:06.281Z,44.00
2018-03-27T13:57:32.570Z,44.00
2018-03-27T13:59:58.838Z,41.10
2018-03-27T14:02:25.909Z,40.20
2018-03-27T14:04:52.266Z,40.20
2018-03-27T14:07:18.703Z,41.00
2018-03-27T14:09:45.043Z,41.30
2018-03-27T14:12:11.385Z,42.20
2018-03-27T14:14:38.450Z,41.70
2018-03-27T14:17:04.803Z,41.60
2018-03-27T14:19:31.110Z,42.60
2018-03-27T14:21:57.400Z,44.00
2018-03-27T14:24:23.685Z,44.30
2018-03-27T14:26:50.103Z,45.10
2018-03-27T14:29:16.362Z,46.00
2018-03-27T14:31:42.707Z,47.00
2018-03-27T14:34:08.940Z,46.90
2018-03-27T14:36:35.217Z,47.50
2018-03-27T14:39:02.273Z,45.70
2018-03-27T14:41:28.541Z,45.60
2018-03-27T14:43:55.726Z,45.20
2018-03-27T14:46:22.054Z,45.20
2018-03-27T14:48:48.391Z,45.50
2018-03-27T14:51:14.788Z,43.60
2018-03-27T14:53:41.082Z,42.90
2018-03-27T14:56:07.418Z,42.70
2018-03-27T14:58:34.423Z,42.00
2018-03-27T15:01:00.684Z,41.90
2018-03-27T15:03:27.057Z,44.30
2018-03-27T15:05:53.802Z,45.80
2018-03-27T15:08:21.022Z,43.30
2018-03-27T15:10:48.130Z,43.50
2018-03-27T15:13:15.151Z,43.20
2018-03-27T15:15:41.393Z,43.20
2018-03-27T15:18:07.699Z,42.80
2018-03-27T15:20:34.058Z,43.40
2018-03-27T15:23:00.305Z,41.30
2018-03-27T15:25:26.568Z,42.80
2018-03-27T15:27:53.032Z,43.60
2018-03-27T15:30:19.484Z,43.90
2018-03-27T15:32:46.520Z,46.50
2018-03-27T15:35:12.816Z,46.50
2018-03-27T15:37:39.145Z,46.70
2018-03-27T15:40:05.461Z,45.60
2018-03-27T15:42:31.707Z,46.50
2018-03-27T15:44:58.010Z,46.30
2018-03-27T15:47:24.335Z,44.10
2018-03-27T15:49:50.698Z,42.90
2018-03-27T15:52:17.475Z,43.20
2018-03-27T15:54:44.508Z,43.90
2018-03-27T15:57:10.874Z,43.40
2018-03-27T15:59:37.117Z,43.80
2018-03-27T16:02:03.423Z,44.20
2018-03-27T16:04:29.670Z,45.60
2018-03-27T16:06:56.031Z,45.70
2018-03-27T16:09:22.449Z,46.00
2018-03-27T16:11:48.905Z,46.70
2018-03-27T16:14:15.223Z,46.70
2018-03-27T16:16:41.488Z,47.00
2018-03-27T16:19:07.742Z,47.00
2018-03-27T16:21:33.991Z,47.30
2018-03-27T16:24:00.304Z,47.30
2018-03-27T16:26:26.776Z,47.70
2018-03-27T16:28:53.147Z,48.00
2018-03-27T16:31:19.672Z,48.50
2018-03-27T16:33:45.996Z,48.40
2018-03-27T16:36:12.370Z,48.20
2018-03-27T16:38:38.753Z,48.10
2018-03-27T16:41:05.095Z,48.40
2018-03-27T16:43:31.492Z,48.20
2018-03-27T16:45:57.733Z,48.30
2018-03-27T16:48:27.731Z,48.60
2018-03-27T16:50:54.007Z,48.50
2018-03-27T16:53:20.592Z,48.30
2018-03-27T16:55:47.103Z,48.30
2018-03-27T16:58:14.204Z,48.80
2018-03-27T17:00:41.181Z,48.60
2018-03-27T17:03:07.457Z,48.60
2018-03-27T17:05:33.742Z,48.70
2018-03-27T17:08:00.744Z,48.90
2018-03-27T17:10:27.045Z,48.80
2018-03-27T17:12:54.150Z,49.40
2018-03-27T17:15:21.117Z,49.40
2018-03-27T17:17:48.688Z,50.10
2018-03-27T17:20:15.111Z,50.20
2018-03-27T17:22:41.564Z,50.30
2018-03-27T17:25:07.839Z,50.40
2018-03-27T17:27:34.186Z,51.00
2018-03-27T17:30:00.515Z,51.40
2018-03-27T17:32:26.836Z,51.60
2018-03-27T17:34:53.269Z,51.90
2018-03-27T17:37:19.917Z,52.30
2018-03-27T17:39:46.334Z,52.70
2018-03-27T17:42:12.589Z,52.90
2018-03-27T17:44:39.686Z,53.60
2018-03-27T17:47:06.022Z,53.60
2018-03-27T17:49:32.303Z,53.80
2018-03-27T17:51:58.630Z,53.90
2018-03-27T17:54:24.906Z,55.10
2018-03-27T17:56:51.351Z,54.70
2018-03-27T17:59:18.977Z,53.50
2018-03-27T18:01:45.471Z,53.40
2018-03-27T18:04:11.977Z,53.50
2018-03-27T18:06:38.217Z,53.90
2018-03-27T18:09:04.601Z,54.00
2018-03-27T18:11:30.879Z,54.30
2018-03-27T18:13:57.970Z,54.70
2018-03-27T18:16:24.427Z,54.60
2018-03-27T18:18:52.305Z,54.70
2018-03-27T18:21:18.919Z,55.10
2018-03-27T18:23:45.324Z,55.50
2018-03-27T18:26:11.671Z,56.00
2018-03-27T18:28:38.002Z,56.30
2018-03-27T18:31:04.387Z,56.20
2018-03-27T18:33:31.371Z,56.40
2018-03-27T18:35:57.717Z,56.40
2018-03-27T18:38:24.058Z,56.50
2018-03-27T18:40:50.782Z,56.20
2018-03-27T18:43:17.443Z,56.10
2018-03-27T18:45:43.839Z,56.10
2018-03-27T18:48:10.188Z,55.90
2018-03-27T18:50:36.474Z,56.30
2018-03-27T18:53:03.561Z,55.90
2018-03-27T18:55:29.872Z,55.90
2018-03-27T18:57:56.255Z,55.80
2018-03-27T19:00:23.168Z,55.80
2018-03-27T19:02:50.857Z,55.90
2018-03-27T19:05:19.601Z,56.50
2018-03-27T19:07:46.140Z,56.50
2018-03-27T19:10:13.228Z,56.30
2018-03-27T19:12:39.536Z,56.20
2018-03-27T19:15:05.778Z,56.30
2018-03-27T19:17:32.043Z,56.30
2018-03-27T19:19:59.256Z,56.50
2018-03-27T19:22:25.831Z,57.00
2018-03-27T19:24:52.879Z,57.70
2018-03-27T19:27:20.653Z,57.50
2018-03-27T19:29:49.664Z,57.80
2018-03-27T19:32:16.312Z,57.70
2018-03-27T19:34:42.604Z,57.60
2018-03-27T19:37:09.053Z,57.80
2018-03-27T19:39:35.381Z,58.00
2018-03-27T19:42:01.854Z,58.20
2018-03-27T19:44:28.102Z,58.20
2018-03-27T19:46:55.114Z,58.00
2018-03-27T19:49:27.769Z,57.90
2018-03-27T19:51:54.283Z,57.50
2018-03-27T19:54:22.817Z,57.10
2018-03-27T19:56:49.803Z,56.60
2018-03-27T19:59:16.149Z,56.30
2018-03-27T20:01:42.447Z,57.30
2018-03-27T20:04:08.770Z,58.00
2018-03-27T20:06:35.028Z,55.90
2018-03-27T20:09:02.090Z,54.80
2018-03-27T20:11:30.468Z,54.70
2018-03-27T20:13:56.862Z,55.00
2018-03-27T20:16:24.646Z,55.20
2018-03-27T20:18:51.298Z,55.30
2018-03-27T20:21:18.860Z,55.30
2018-03-27T20:23:45.083Z,55.40
2018-03-27T20:26:11.729Z,55.40
2018-03-27T20:28:38.021Z,55.40
2018-03-27T20:31:04.536Z,55.40
2018-03-27T20:33:30.816Z,55.40
2018-03-27T20:35:57.121Z,55.40
2018-03-27T20:38:23.501Z,55.40
2018-03-27T20:40:49.903Z,55.40
2018-03-27T20:43:16.280Z,55.40
2018-03-27T20:45:42.666Z,55.30
2018-03-27T20:48:09.707Z,55.80
2018-03-27T20:50:36.004Z,55.10
2018-03-27T20:53:02.335Z,55.20
2018-03-27T20:55:28.571Z,56.10
2018-03-27T20:57:54.849Z,55.30
2018-03-27T21:00:21.192Z,55.30
2018-03-27T21:02:49.504Z,55.20
2018-03-27T21:05:15.848Z,55.50
2018-03-27T21:07:42.125Z,55.50
2018-03-27T21:10:09.223Z,55.80
2018-03-27T21:12:35.530Z,55.80
2018-03-27T21:15:01.799Z,56.00
2018-03-27T21:17:28.106Z,55.70
2018-03-27T21:19:54.576Z,55.70
2018-03-27T21:22:21.456Z,55.70
2018-03-27T21:24:49.123Z,55.40
2018-03-27T21:27:15.514Z,55.50
2018-03-27T21:29:41.846Z,55.70
2018-03-27T21:32:08.152Z,55.70
2018-03-27T21:34:34.430Z,55.50
2018-03-27T21:37:00.735Z,55.50
2018-03-27T21:39:27.045Z,58.20
2018-03-27T21:41:54.126Z,54.70
2018-03-27T21:44:20.457Z,54.70
2018-03-27T21:46:47.012Z,54.30
2018-03-27T21:49:13.341Z,54.30
2018-03-27T21:51:40.418Z,55.00
2018-03-27T21:54:06.722Z,55.00
2018-03-27T21:56:33.034Z,57.00
2018-03-27T21:58:59.337Z,55.10
2018-03-27T22:01:26.357Z,55.10
2018-03-27T22:03:52.891Z,55.10
2018-03-27T22:06:24.130Z,55.10
2018-03-27T22:08:50.446Z,55.60
2018-03-27T22:11:16.717Z,55.50
2018-03-27T22:13:43.227Z,55.00
2018-03-27T22:16:09.502Z,57.30
2018-03-27T22:18:35.770Z,55.20
2018-03-27T22:21:02.783Z,56.50
2018-03-27T22:23:29.070Z,56.50
2018-03-27T22:25:55.373Z,55.20
2018-03-27T22:28:21.842Z,55.00
2018-03-27T22:30:48.158Z,55.30
2018-03-27T22:33:14.500Z,55.40
2018-03-27T22:35:40.878Z,55.50
2018-03-27T22:38:07.093Z,55.90
2018-03-27T22:40:33.417Z,56.00
2018-03-27T22:43:00.445Z,56.00
2018-03-27T22:45:26.786Z,55.90
2018-03-27T22:47:53.077Z,56.80
2018-03-27T22:50:19.371Z,55.50
2018-03-27T22:52:45.641Z,55.60
2018-03-27T22:55:12.645Z,55.70
2018-03-27T22:57:38.929Z,55.70
2018-03-27T23:00:05.959Z,55.70
2018-03-27T23:02:32.229Z,55.70
2018-03-27T23:04:58.473Z,57.50
2018-03-27T23:07:24.795Z,55.70
2018-03-27T23:09:51.062Z,55.90
2018-03-27T23:12:18.348Z,57.20
2018-03-27T23:14:44.899Z,57.20
2018-03-27T23:17:11.195Z,57.10
2018-03-27T23:19:37.466Z,56.40
2018-03-27T23:22:04.482Z,57.60
2018-03-27T23:24:30.825Z,57.50
2018-03-27T23:29:29.164Z,54.30
2018-03-27T23:31:56.241Z,53.50
2018-03-27T23:34:22.543Z,53.50
2018-03-27T23:36:48.845Z,53.90
2018-03-27T23:39:15.820Z,56.10
2018-03-27T23:41:42.902Z,56.80
2018-03-27T23:44:09.201Z,56.80
2018-03-27T23:46:36.218Z,59.60
2018-03-27T23:49:02.558Z,59.60
2018-03-27T23:51:28.818Z,56.50
2018-03-27T23:53:55.149Z,56.90
2018-03-27T23:56:21.457Z,59.30
2018-03-27T23:58:47.979Z,59.90
